^^
Datos históricos de la estación: Murcia-Puente Tocinos
Diario Informe para Junio 2, 2021 Unidades:  Métrico    Ingés   Ambas
Diario Semanal Mensual Anual
  Máxima: Mínima: Promedio:
Temperatura: 11.1 °C 3.4 °C 7.7 °C
Punto de rocio: 0.2 °C -6 °C -3 °C
Humedad: 69% 31% 49%
Velocidad viento: 31.7km/h 0km/h 12km/h
Racha viento: 56.3km/h - -
Viento- - SO
Presión: 1012.7 hPa 1009.5 hPa -
Precipitación: 0.0 mm    
 
 
Tabla de datos para Junio 2, 2021
Hora Temperatura Punto de rocio Presión Viento Velocidad viento Racha viento Humedad Intensidad lluvia(por hora) Nubes
00:04 6.7 °C 0.2 °C 1010.3 hPa SSE 3.2 km/h 11.1 km/h 63% 0.0 mm
00:09 6.5 °C 0.2 °C 1010.3 hPa SSE 5.5 km/h 11.3 km/h 63.9% 0.0 mm
00:14 6.4 °C 0.1 °C 1010.3 hPa SSE 6.9 km/h 14.8 km/h 64% 0.0 mm
00:19 6.4 °C 0.1 °C 1010.3 hPa Sur 8.5 km/h 14.8 km/h 64% 0.0 mm
00:24 6.4 °C 0.1 °C 1010.3 hPa SSO 9.5 km/h 14.5 km/h 64% 0.0 mm
00:29 6.4 °C 0.1 °C 1010.2 hPa SSO 8.3 km/h 11.3 km/h 64% 0.0 mm
00:34 6.5 °C 0.1 °C 1010.2 hPa SO 7.6 km/h 9.7 km/h 63.8% 0.0 mm
00:39 6.6 °C 0 °C 1010.2 hPa OSO 6.9 km/h 9.7 km/h 63% 0.0 mm
00:44 6.6 °C 0 °C 1010.2 hPa OSO 6.5 km/h 9.7 km/h 62.7% 0.0 mm
00:49 6.6 °C -0.2 °C 1010.2 hPa Oeste 5.4 km/h 9.7 km/h 62% 0.0 mm
00:54 6.6 °C -0.4 °C 1010.3 hPa Oeste 4.7 km/h 10.3 km/h 61.1% 0.0 mm
00:59 6.6 °C -0.5 °C 1010.3 hPa Oeste 5.3 km/h 11.3 km/h 60.5% 0.0 mm
01:04 6.6 °C -0.6 °C 1010.3 hPa OSO 5.8 km/h 11.3 km/h 60% 0.0 mm
01:09 6.6 °C -0.6 °C 1010.3 hPa OSO 5.3 km/h 9.7 km/h 60% 0.0 mm
01:14 6.5 °C -0.7 °C 1010.2 hPa SO 5 km/h 9.7 km/h 60% 0.0 mm
01:19 6.5 °C -0.7 °C 1010.2 hPa SO 5.5 km/h 9.7 km/h 60% 0.0 mm
01:24 6.4 °C -0.8 °C 1010.2 hPa Sur 5.8 km/h 9.7 km/h 60% 0.0 mm
01:29 6.4 °C -0.8 °C 1010.0 hPa Sur 6.5 km/h 10 km/h 60% 0.0 mm
01:34 6.4 °C -0.8 °C 1010.0 hPa Sur 6.9 km/h 9.7 km/h 60% 0.0 mm
01:39 6.3 °C -0.8 °C 1010.0 hPa SSE 6.9 km/h 11.9 km/h 60.7% 0.0 mm
01:44 5.9 °C -0.6 °C 1009.9 hPa SE 6.9 km/h 11.3 km/h 63% 0.0 mm
01:49 5.6 °C -0.6 °C 1009.9 hPa SSE 7.3 km/h 12.2 km/h 64.5% 0.0 mm
01:54 5.4 °C -0.6 °C 1009.9 hPa Sur 7.6 km/h 13 km/h 65.1% 0.0 mm
01:59 5.4 °C -0.4 °C 1009.8 hPa SO 6.4 km/h 9.7 km/h 66% 0.0 mm
02:04 5.4 °C -0.4 °C 1009.8 hPa Sur 5.8 km/h 7.6 km/h 66% 0.0 mm
02:09 5.3 °C -0.5 °C 1009.9 hPa SSE 4.6 km/h 11.1 km/h 66% 0.0 mm
02:14 5.3 °C -0.7 °C 1009.9 hPa SSE 3.9 km/h 13 km/h 65.5% 0.0 mm
02:19 5.3 °C -0.8 °C 1009.9 hPa Sur 6.6 km/h 13 km/h 65% 0.0 mm
02:24 5.3 °C -0.8 °C 1009.9 hPa Sur 8.4 km/h 11.3 km/h 64.5% 0.0 mm
02:29 5.4 °C -0.8 °C 1009.9 hPa SSO 7.5 km/h 11.3 km/h 64% 0.0 mm
02:34 5.7 °C -0.8 °C 1009.9 hPa SSO 6.9 km/h 10 km/h 63.2% 0.0 mm
02:39 5.9 °C -0.8 °C 1010.1 hPa SSO 6.9 km/h 11.1 km/h 62.2% 0.0 mm
02:44 6.1 °C -0.8 °C 1010.1 hPa SSO 6.9 km/h 14.8 km/h 61.6% 0.0 mm
02:49 6.1 °C -0.9 °C 1010.1 hPa SSO 8 km/h 14.5 km/h 61% 0.0 mm
02:54 6.2 °C -0.8 °C 1010.1 hPa SSO 8.7 km/h 11.3 km/h 61% 0.0 mm
02:59 6.2 °C -0.8 °C 1009.9 hPa OSO 7.6 km/h 11.3 km/h 61% 0.0 mm
03:04 6.3 °C -0.9 °C 1009.9 hPa Sur 6.9 km/h 11.3 km/h 60.1% 0.0 mm
03:09 6.3 °C -1 °C 1010.1 hPa Oeste 5.1 km/h 9.5 km/h 59.6% 0.0 mm
03:14 6.2 °C -1.1 °C 1010.1 hPa NO 3.9 km/h 9.7 km/h 60% 0.0 mm
03:19 5.8 °C -1.2 °C 1010.1 hPa North 3.9 km/h 8 km/h 60.7% 0.0 mm
03:24 5.7 °C -1 °C 1010.2 hPa ESE 3.9 km/h 8 km/h 61.8% 0.0 mm
03:29 5.7 °C -1 °C 1010.2 hPa SSO 4.4 km/h 10 km/h 61.9% 0.0 mm
03:34 5.7 °C -0.9 °C 1010.2 hPa SSO 4.7 km/h 13 km/h 62.6% 0.0 mm
03:39 5.7 °C -1 °C 1010.2 hPa SSE 4.9 km/h 7.6 km/h 62% 0.0 mm
03:44 5.7 °C -1 °C 1010.2 hPa Sur 5 km/h 10 km/h 62% 0.0 mm
03:49 5.7 °C -1.2 °C 1010.2 hPa Sur 5 km/h 9.7 km/h 61.3% 0.0 mm
03:54 5.7 °C -1.3 °C 1010.2 hPa Sur 5 km/h 9.3 km/h 61% 0.0 mm
03:59 5.5 °C -1.4 °C 1010.1 hPa Sur 5.5 km/h 9.7 km/h 61.5% 0.0 mm
04:04 5.3 °C -1.4 °C 1010.1 hPa SSO 5.8 km/h 9.7 km/h 62% 0.0 mm
04:09 5.3 °C -1.4 °C 1010.1 hPa SSO 5.3 km/h 7.6 km/h 62% 0.0 mm
04:14 5.2 °C -1.5 °C 1010.1 hPa Sur 5 km/h 9.5 km/h 62% 0.0 mm
04:19 5.2 °C -1.5 °C 1010.1 hPa Sur 4.3 km/h 9.7 km/h 62% 0.0 mm
04:24 5.1 °C -1.6 °C 1010.1 hPa SSE 3.9 km/h 8 km/h 62% 0.0 mm
04:29 5.1 °C -1.6 °C 1010.1 hPa SE 3.5 km/h 8 km/h 62.4% 0.0 mm
04:34 4.9 °C -1.5 °C 1010.1 hPa ESE 3.2 km/h 8.4 km/h 63% 0.0 mm
04:39 4.8 °C -1.6 °C 1010.1 hPa SSE 4.2 km/h 9.5 km/h 63% 0.0 mm
04:44 4.8 °C -1.7 °C 1010.1 hPa SE 5 km/h 9.7 km/h 63% 0.0 mm
04:49 4.7 °C -1.8 °C 1010.1 hPa SE 4.3 km/h 8 km/h 63% 0.0 mm
04:54 4.7 °C -1.7 °C 1010.1 hPa SE 3.9 km/h 8 km/h 63.4% 0.0 mm
04:59 4.7 °C -1.7 °C 1010.1 hPa SE 3.9 km/h 7.4 km/h 63.6% 0.0 mm
05:04 4.6 °C -1.6 °C 1010.1 hPa SE 3.9 km/h 8 km/h 64% 0.0 mm
05:09 4.5 °C -1.7 °C 1010.2 hPa SE 3.9 km/h 4.7 km/h 64% 0.0 mm
05:14 4.4 °C -1.8 °C 1010.2 hPa SE 2.3 km/h 3.7 km/h 64.3% 0.0 mm
05:19 4.4 °C -1.6 °C 1010.2 hPa SE 1.8 km/h 3.9 km/h 65% 0.0 mm
05:24 4.3 °C -1.7 °C 1010.2 hPa Calm   8.4 km/h 65% 0.0 mm
05:29 4.2 °C -1.7 °C 1010.1 hPa ONO 1.7 km/h 8 km/h 65.6% 0.0 mm
05:34 4 °C -1.8 °C 1010.1 hPa ONO 2.9 km/h 8 km/h 66% 0.0 mm
05:39 3.9 °C -1.7 °C 1010.1 hPa SO 3.2 km/h 9.3 km/h 66.8% 0.0 mm
05:44 3.9 °C -1.7 °C 1010.0 hPa SO 3.9 km/h 9.7 km/h 67% 0.0 mm
05:49 4 °C -1.6 °C 1010.0 hPa OSO 3.9 km/h 8 km/h 67.2% 0.0 mm
05:54 4.2 °C -1.5 °C 1010.0 hPa OSO 4.1 km/h 8 km/h 66.7% 0.0 mm
05:59 4.2 °C -1.6 °C 1010.0 hPa SO 4.7 km/h 7.4 km/h 66% 0.0 mm
06:04 4.2 °C -1.6 °C 1010.0 hPa SO 4.7 km/h 8 km/h 66% 0.0 mm
06:09 4.2 °C -1.6 °C 1010.0 hPa OSO 3.8 km/h 5.8 km/h 66% 0.0 mm
06:14 4.2 °C -1.6 °C 1010.0 hPa Oeste 3.2 km/h 7.4 km/h 66% 0.0 mm
06:19 4 °C -1.6 °C 1010.0 hPa ONO 3 km/h 8 km/h 66.8% 0.0 mm
06:24 3.7 °C -1.9 °C 1010.1 hPa NNO 2.9 km/h 8 km/h 66.7% 0.0 mm
06:29 3.4 °C -1.9 °C 1010.1 hPa Oeste 3.5 km/h 7.4 km/h 68.1% 0.0 mm
06:34 3.4 °C -1.7 °C 1010.1 hPa SO 3.9 km/h 8 km/h 69% 0.0 mm
06:39 3.6 °C -1.6 °C 1010.2 hPa SO 3.9 km/h 8 km/h 69% 0.0 mm
06:44 3.7 °C -1.6 °C 1010.2 hPa OSO 3.9 km/h 6.4 km/h 68.3% 0.0 mm
06:49 3.7 °C -1.7 °C 1010.2 hPa ONO 3.3 km/h 5.6 km/h 68% 0.0 mm
06:54 3.8 °C -1.6 °C 1010.3 hPa OSO 2.9 km/h 6.4 km/h 68% 0.0 mm
06:59 3.8 °C -1.8 °C 1010.3 hPa SO 3.5 km/h 8 km/h 67.1% 0.0 mm
07:04 3.8 °C -1.6 °C 1010.3 hPa SO 3.9 km/h 8.4 km/h 67.7% 0.0 mm
07:09 3.9 °C -1.7 °C 1010.4 hPa SSO 3.9 km/h 9.5 km/h 67% 0.0 mm
07:14 4.1 °C -1.5 °C 1010.4 hPa SO 3.9 km/h 9.7 km/h 67% 0.0 mm
07:19 4.2 °C -1.5 °C 1010.4 hPa Sur 4.4 km/h 9.5 km/h 66.5% 0.0 mm
07:24 4.3 °C -1.5 °C 1010.5 hPa Sur 4.7 km/h 9.7 km/h 66% 0.0 mm
07:29 4.3 °C -1.5 °C 1010.5 hPa Sur 5.4 km/h 11.9 km/h 65.8% 0.0 mm
07:34 4.5 °C -1.6 °C 1010.5 hPa Sur 5.8 km/h 11.3 km/h 64.6% 0.0 mm
07:39 4.8 °C -1.7 °C 1010.6 hPa SSO 6.5 km/h 11.3 km/h 63.3% 0.0 mm
07:44 4.9 °C -1.7 °C 1010.6 hPa SSO 6.9 km/h 11.3 km/h 62.2% 0.0 mm
07:49 4.9 °C -1.8 °C 1010.6 hPa SSO 6.9 km/h 10.3 km/h 62% 0.0 mm
07:54 4.9 °C -1.8 °C 1010.8 hPa SO 6.9 km/h 11.3 km/h 61.9% 0.0 mm
07:59 4.9 °C -2 °C 1010.8 hPa SSO 5.7 km/h 9.7 km/h 61% 0.0 mm
08:04 5 °C -1.9 °C 1010.8 hPa SSO 5 km/h 8 km/h 61% 0.0 mm
08:09 5.1 °C -1.9 °C 1010.9 hPa SSO 4.8 km/h 8 km/h 60.5% 0.0 mm
08:14 5.1 °C -2.1 °C 1010.9 hPa Sur 4.7 km/h 8 km/h 60% 0.0 mm
08:19 5.1 °C -2 °C 1010.9 hPa SSO 4.7 km/h 8 km/h 60.1% 0.0 mm
08:24 4.9 °C -2 °C 1011.2 hPa SE 4.7 km/h 8.4 km/h 61% 0.0 mm
08:29 4.7 °C -2 °C 1011.2 hPa SE 4.1 km/h 8 km/h 61.8% 0.0 mm
08:34 4.4 °C -2.2 °C 1011.2 hPa SE 3.9 km/h 8 km/h 62.3% 0.0 mm
08:39 4.4 °C -2.2 °C 1011.3 hPa Oeste 3.3 km/h 7.6 km/h 62.5% 0.0 mm
08:44 4.5 °C -2 °C 1011.3 hPa Oeste 2.9 km/h 8 km/h 62.8% 0.0 mm
08:49 4.5 °C -2 °C 1011.3 hPa Oeste 3.1 km/h 10 km/h 62.9% 0.0 mm
08:54 4.5 °C -2.1 °C 1011.4 hPa OSO 3.2 km/h 9.7 km/h 62% 0.0 mm
08:59 4.6 °C -2.1 °C 1011.4 hPa Sur 4.1 km/h 8 km/h 62% 0.0 mm
09:04 4.6 °C -2 °C 1011.4 hPa SSE 4.7 km/h 8 km/h 62% 0.0 mm
09:09 4.8 °C -1.9 °C 1011.4 hPa SSE 4.2 km/h 10.3 km/h 61.8% 0.0 mm
09:14 5.1 °C -2 °C 1011.4 hPa SSE 3.9 km/h 11.3 km/h 60.4% 0.0 mm
09:19 5.1 °C -2.1 °C 1011.4 hPa SSE 5.5 km/h 12.2 km/h 60% 0.0 mm
09:24 4.8 °C -2.1 °C 1011.4 hPa Sur 6.5 km/h 17.2 km/h 60.9% 0.0 mm
09:29 4.7 °C -2.1 °C 1011.3 hPa Sur 8.8 km/h 17.7 km/h 61.5% 0.0 mm
09:34 4.8 °C -2 °C 1011.3 hPa Sur 10.3 km/h 17.7 km/h 61.7% 0.0 mm
09:39 4.9 °C -2 °C 1011.4 hPa Sur 10.8 km/h 16.7 km/h 61% 0.0 mm
09:44 5.2 °C -1.9 °C 1011.4 hPa Sur 11.1 km/h 16.1 km/h 60.1% 0.0 mm
09:49 5.4 °C -1.9 °C 1011.4 hPa SSE 10.1 km/h 16.4 km/h 59.3% 0.0 mm
09:54 5.7 °C -1.9 °C 1011.5 hPa SSE 9.5 km/h 16.7 km/h 58.2% 0.0 mm
09:59 5.8 °C -2 °C 1011.5 hPa Sur 10 km/h 16.7 km/h 57.4% 0.0 mm
10:04 5.8 °C -2 °C 1011.5 hPa Sur 10.3 km/h 20.4 km/h 57% 0.0 mm
10:09 6 °C -2.1 °C 1011.5 hPa SSE 12 km/h 20.9 km/h 56% 0.0 mm
10:14 6.3 °C -1.9 °C 1011.4 hPa SSE 13 km/h 19.3 km/h 56% 0.0 mm
10:19 6.5 °C -1.9 °C 1011.4 hPa Sur 11.1 km/h 17.7 km/h 55% 0.0 mm
10:24 6.7 °C -1.8 °C 1011.4 hPa Sur 10 km/h 16.7 km/h 54.7% 0.0 mm
10:29 6.9 °C -1.8 °C 1011.4 hPa SSE 10 km/h 16.1 km/h 54% 0.0 mm
10:34 7.2 °C -1.8 °C 1011.4 hPa SSE 10 km/h 18.5 km/h 53% 0.0 mm
10:39 7.4 °C -1.7 °C 1011.5 hPa Sur 10 km/h 19.3 km/h 52.8% 0.0 mm
10:44 7.6 °C -1.6 °C 1011.5 hPa Sur 10 km/h 16.7 km/h 52% 0.0 mm
10:49 7.9 °C -1.9 °C 1011.5 hPa SO 9 km/h 26.2 km/h 49.9% 0.0 mm
10:54 8.3 °C -3 °C 1011.5 hPa OSO 8.4 km/h 25.9 km/h 45.1% 0.0 mm
10:59 8.6 °C -3.2 °C 1011.5 hPa SO 11.8 km/h 27 km/h 43.2% 0.0 mm
11:04 8.8 °C -3.5 °C 1011.5 hPa SO 13.7 km/h 27.8 km/h 42% 0.0 mm
11:09 8.9 °C -3.6 °C 1011.5 hPa OSO 15.1 km/h 30.6 km/h 41.3% 0.0 mm
11:14 9 °C -3.8 °C 1011.5 hPa OSO 16.1 km/h 31.7 km/h 40.3% 0.0 mm
11:19 9.1 °C -3.9 °C 1011.5 hPa OSO 15.8 km/h 32.2 km/h 39.6% 0.0 mm
11:24 9.3 °C -3.8 °C 1011.5 hPa SO 15.6 km/h 25.9 km/h 39.6% 0.0 mm
11:29 9.3 °C -3.9 °C 1011.4 hPa OSO 14 km/h 31.5 km/h 39% 0.0 mm
11:34 9.4 °C -4.1 °C 1011.4 hPa OSO 13 km/h 24.1 km/h 38.3% 0.0 mm
11:39 9.4 °C -4.4 °C 1011.4 hPa OSO 13.6 km/h 31.7 km/h 37.5% 0.0 mm
11:44 9.4 °C -4.7 °C 1011.3 hPa OSO 14 km/h 32.8 km/h 36.6% 0.0 mm
11:49 9.5 °C -5.1 °C 1011.3 hPa SO 17.7 km/h 35.9 km/h 35.2% 0.0 mm
11:54 9.5 °C -5.2 °C 1011.3 hPa SO 20.1 km/h 38.9 km/h 35% 0.0 mm
11:59 9.6 °C -5.2 °C 1011.2 hPa OSO 20.1 km/h 38.9 km/h 34.9% 0.0 mm
12:04 9.6 °C -5.1 °C 1011.2 hPa OSO 20.1 km/h 35.4 km/h 35% 0.0 mm
12:09 9.6 °C -5.4 °C 1011.2 hPa OSO 19.9 km/h 41.2 km/h 34.1% 0.0 mm
12:14 9.6 °C -5.3 °C 1011.2 hPa Oeste 19.8 km/h 41.8 km/h 34.5% 0.0 mm
12:19 9.8 °C -5.1 °C 1011.2 hPa OSO 18.7 km/h 32.8 km/h 34.6% 0.0 mm
12:24 9.8 °C -5.4 °C 1011.2 hPa Oeste 18 km/h 33.8 km/h 33.9% 0.0 mm
12:29 9.8 °C -5.4 °C 1011.0 hPa OSO 18.2 km/h 33.3 km/h 33.9% 0.0 mm
12:34 10 °C -5.4 °C 1011.0 hPa Oeste 18.4 km/h 37.8 km/h 33.5% 0.0 mm
12:39 10 °C -5.6 °C 1011.0 hPa Oeste 18.2 km/h 37 km/h 33% 0.0 mm
12:44 10 °C -6 °C 1010.8 hPa Oeste 18 km/h 35.4 km/h 32.1% 0.0 mm
12:49 10 °C -5.8 °C 1010.8 hPa Oeste 20.5 km/h 34.3 km/h 32.3% 0.0 mm
12:54 10.2 °C -5.8 °C 1010.8 hPa Oeste 22.1 km/h 34.6 km/h 32% 0.0 mm
12:59 10.3 °C -5.7 °C 1010.4 hPa Oeste 20.7 km/h 37 km/h 32% 0.0 mm
13:04 10.3 °C -5.7 °C 1010.4 hPa Oeste 19.8 km/h 37 km/h 32% 0.0 mm
13:09 10.6 °C -5.7 °C 1010.4 hPa Oeste 19.8 km/h 32.2 km/h 31.3% 0.0 mm
13:14 10.6 °C -5.9 °C 1010.2 hPa Oeste 19.8 km/h 41.2 km/h 31% 0.0 mm
13:19 10.6 °C -5.8 °C 1010.2 hPa Oeste 22.8 km/h 41.8 km/h 31% 0.0 mm
13:24 10.7 °C -5.8 °C 1010.2 hPa Oeste 24.5 km/h 44.4 km/h 31% 0.0 mm
13:29 10.4 °C -6 °C 1010.2 hPa Oeste 24.5 km/h 45.1 km/h 31% 0.0 mm
13:34 10.6 °C -5.9 °C 1010.2 hPa OSO 24.5 km/h 41.8 km/h 31% 0.0 mm
13:39 10.6 °C -5.8 °C 1010.2 hPa OSO 21.8 km/h 40.2 km/h 31% 0.0 mm
13:44 10.7 °C -5.7 °C 1010.1 hPa OSO 20.1 km/h 43.1 km/h 31.1% 0.0 mm
13:49 10.9 °C -5.6 °C 1010.1 hPa OSO 19 km/h 43.5 km/h 31% 0.0 mm
13:54 10.9 °C -5.6 °C 1010.1 hPa Oeste 18.4 km/h 41.8 km/h 31% 0.0 mm
13:59 11.1 °C -5.4 °C 1009.9 hPa Oeste 19.3 km/h 26.2 km/h 31% 0.0 mm
14:04 11.1 °C -5.5 °C 1009.9 hPa Oeste 19.8 km/h 38.9 km/h 31% 0.0 mm
14:09 10.9 °C -5.6 °C 1009.9 hPa Oeste 20.5 km/h 38.9 km/h 31% 0.0 mm
14:14 10.9 °C -5.6 °C 1009.9 hPa OSO 20.9 km/h 45.7 km/h 31.1% 0.0 mm
14:19 10.9 °C -5.3 °C 1009.9 hPa Oeste 22.6 km/h 46.7 km/h 31.8% 0.0 mm
14:24 10.8 °C -5.2 °C 1009.9 hPa ONO 23.7 km/h 46.7 km/h 32% 0.0 mm
14:29 10.9 °C -5.1 °C 1009.6 hPa ONO 24.2 km/h 45.1 km/h 32% 0.0 mm
14:34 11.1 °C -5 °C 1009.6 hPa Oeste 24.5 km/h 41.2 km/h 32% 0.0 mm
14:39 11.1 °C -4.9 °C 1009.6 hPa ONO 24.9 km/h 41.8 km/h 32.2% 0.0 mm
14:44 10.9 °C -4.8 °C 1009.5 hPa Oeste 25.1 km/h 48.3 km/h 32.9% 0.0 mm
14:49 10.9 °C -4.8 °C 1009.5 hPa ONO 25.4 km/h 48.3 km/h 33% 0.0 mm
14:54 10.8 °C -4.8 °C 1009.5 hPa Oeste 25.6 km/h 40.7 km/h 33% 0.0 mm
14:59 10.9 °C -4.6 °C 1009.5 hPa ONO 23.6 km/h 40.2 km/h 33.3% 0.0 mm
15:04 11.1 °C -4.6 °C 1009.5 hPa ONO 22.5 km/h 40.7 km/h 33% 0.0 mm
15:09 11 °C -4.7 °C 1009.5 hPa ONO 23.3 km/h 44.4 km/h 33% 0.0 mm
15:14 10.8 °C -4.7 °C 1009.5 hPa Oeste 23.7 km/h 45.1 km/h 33.5% 0.0 mm
15:19 10.7 °C -4.6 °C 1009.5 hPa ONO 23.5 km/h 37 km/h 34% 0.0 mm
15:24 10.7 °C -4.6 °C 1009.7 hPa ONO 23.3 km/h 54.2 km/h 34% 0.0 mm
15:29 10.6 °C -4.6 °C 1009.7 hPa ONO 23.3 km/h 54.7 km/h 34% 0.0 mm
15:34 10.6 °C -4.6 °C 1009.7 hPa Oeste 23.3 km/h 50.1 km/h 34% 0.0 mm
15:39 10.6 °C -4.3 °C 1009.8 hPa ONO 23.3 km/h 38.9 km/h 34.9% 0.0 mm
15:44 10.7 °C -4.3 °C 1009.8 hPa Oeste 23.3 km/h 44.4 km/h 34.8% 0.0 mm
15:49 10.8 °C -4.1 °C 1009.8 hPa ONO 24.4 km/h 55.4 km/h 35% 0.0 mm
15:54 10.5 °C -4.3 °C 1009.9 hPa ONO 25.1 km/h 56.3 km/h 35% 0.0 mm
15:59 10.4 °C -4.4 °C 1009.9 hPa ONO 29.4 km/h 56.3 km/h 35.1% 0.0 mm
16:04 10.3 °C -4.5 °C 1009.9 hPa Oeste 31.7 km/h 51.8 km/h 35% 0.0 mm
16:09 10.3 °C -4.5 °C 1010.1 hPa ONO 30.6 km/h 51.5 km/h 35% 0.0 mm
16:14 10.3 °C -4.5 °C 1010.1 hPa Oeste 29.8 km/h 46.7 km/h 35% 0.0 mm
16:19 10.3 °C -4.5 °C 1010.1 hPa Oeste 26.6 km/h 46.8 km/h 35% 0.0 mm
16:24 10.3 °C -4.5 °C 1010.2 hPa Oeste 24.5 km/h 46.7 km/h 35% 0.0 mm
16:29 10.3 °C -4.5 °C 1010.2 hPa Oeste 20.8 km/h 37.8 km/h 35% 0.0 mm
16:34 10.3 °C -4.5 °C 1010.2 hPa Oeste 18.3 km/h 42.6 km/h 35% 0.0 mm
16:39 10.3 °C -4.5 °C 1010.3 hPa Oeste 20.5 km/h 41.8 km/h 35% 0.0 mm
16:44 10.4 °C -4.5 °C 1010.3 hPa OSO 21.7 km/h 41.8 km/h 35% 0.0 mm
16:49 10.4 °C -4.4 °C 1010.3 hPa Oeste 20.5 km/h 37 km/h 35% 0.0 mm
16:54 10.3 °C -4.5 °C 1010.5 hPa Oeste 19.8 km/h 29.6 km/h 35% 0.0 mm
16:59 10.3 °C -4.5 °C 1010.5 hPa Oeste 18.2 km/h 42 km/h 35% 0.0 mm
17:04 10.3 °C -4.5 °C 1010.5 hPa OSO 17.2 km/h 42.6 km/h 35% 0.0 mm
17:09 10.3 °C -4.5 °C 1010.5 hPa OSO 18.8 km/h 35.2 km/h 35% 0.0 mm
17:14 10.3 °C -4.5 °C 1010.4 hPa OSO 19.8 km/h 33.5 km/h 35% 0.0 mm
17:19 10.3 °C -4.5 °C 1010.4 hPa Oeste 20 km/h 42.6 km/h 35% 0.0 mm
17:24 10.2 °C -4.6 °C 1010.4 hPa Oeste 20.1 km/h 41.8 km/h 35% 0.0 mm
17:29 10.2 °C -4.6 °C 1010.3 hPa Oeste 22 km/h 46.8 km/h 35% 0.0 mm
17:34 10.2 °C -4.6 °C 1010.3 hPa OSO 23.3 km/h 46.7 km/h 35% 0.0 mm
17:39 10.2 °C -4.6 °C 1010.3 hPa Oeste 21.2 km/h 39.6 km/h 35% 0.0 mm
17:44 10.2 °C -4.6 °C 1010.3 hPa Oeste 19.8 km/h 40.2 km/h 35% 0.0 mm
17:49 10.2 °C -4.6 °C 1010.3 hPa Oeste 19.8 km/h 33.8 km/h 35% 0.0 mm
17:54 10.2 °C -4.7 °C 1010.5 hPa Oeste 19.8 km/h 27.8 km/h 35% 0.0 mm
17:59 10.1 °C -4.4 °C 1010.5 hPa Oeste 16.2 km/h 35.2 km/h 35.8% 0.0 mm
18:04 10 °C -4.4 °C 1010.5 hPa Oeste 14 km/h 42.6 km/h 36% 0.0 mm
18:09 10 °C -4.4 °C 1010.6 hPa Oeste 20 km/h 41.8 km/h 36% 0.0 mm
18:14 9.9 °C -4.5 °C 1010.6 hPa Oeste 23.7 km/h 38.9 km/h 36% 0.0 mm
18:19 9.9 °C -4.5 °C 1010.6 hPa Oeste 22.4 km/h 38.6 km/h 36% 0.0 mm
18:24 9.9 °C -4.5 °C 1010.6 hPa Oeste 21.7 km/h 37 km/h 36% 0.0 mm
18:29 9.8 °C -4.6 °C 1010.5 hPa Oeste 19.6 km/h 33.8 km/h 36% 0.0 mm
18:34 9.8 °C -4.5 °C 1010.5 hPa OSO 18.4 km/h 40.7 km/h 36.2% 0.0 mm
18:39 9.8 °C -4.2 °C 1010.7 hPa Oeste 18.4 km/h 40.2 km/h 37% 0.0 mm
18:44 9.8 °C -4.3 °C 1010.7 hPa Oeste 18.4 km/h 35.4 km/h 36.9% 0.0 mm
18:49 9.8 °C -4.2 °C 1010.7 hPa Oeste 18.4 km/h 32.2 km/h 37% 0.0 mm
18:54 9.7 °C -4.3 °C 1010.9 hPa Oeste 18.4 km/h 32.2 km/h 37% 0.0 mm
18:59 9.7 °C -4.3 °C 1010.9 hPa Oeste 14.4 km/h 29.6 km/h 37% 0.0 mm
19:04 9.7 °C -4.3 °C 1010.9 hPa Oeste 12.2 km/h 29 km/h 37% 0.0 mm
19:09 9.6 °C -4.1 °C 1010.9 hPa ONO 13.1 km/h 27.8 km/h 37.9% 0.0 mm
19:14 9.6 °C -4.1 °C 1010.9 hPa Oeste 13.7 km/h 30.6 km/h 38% 0.0 mm
19:19 9.6 °C -4.1 °C 1010.9 hPa Oeste 12.8 km/h 30.6 km/h 38% 0.0 mm
19:24 9.6 °C -4.1 °C 1010.9 hPa Oeste 12.2 km/h 20.9 km/h 38% 0.0 mm
19:29 9.5 °C -4.1 °C 1010.9 hPa ONO 10.8 km/h 20.9 km/h 38% 0.0 mm
19:34 9.4 °C -4 °C 1010.9 hPa ONO 10 km/h 29.6 km/h 38.6% 0.0 mm
19:39 9.5 °C -4 °C 1011.2 hPa ONO 10 km/h 29 km/h 38.5% 0.0 mm
19:44 9.5 °C -3.8 °C 1011.2 hPa Oeste 10 km/h 27.4 km/h 38.9% 0.0 mm
19:49 9.4 °C -3.9 °C 1011.2 hPa ONO 8.5 km/h 16.1 km/h 39% 0.0 mm
19:54 9.4 °C -3.9 °C 1011.4 hPa SO 7.6 km/h 13 km/h 39% 0.0 mm
19:59 9.3 °C -3.9 °C 1011.4 hPa OSO 7 km/h 17.2 km/h 39% 0.0 mm
20:04 9.3 °C -3.7 °C 1011.4 hPa OSO 6.5 km/h 17.7 km/h 39.7% 0.0 mm
20:09 9.2 °C -3.7 °C 1011.5 hPa Oeste 7.9 km/h 16.4 km/h 40% 0.0 mm
20:14 9.1 °C -3.8 °C 1011.5 hPa Oeste 8.7 km/h 16.7 km/h 40% 0.0 mm
20:19 9.1 °C -3.7 °C 1011.5 hPa Oeste 7.6 km/h 14.5 km/h 40.4% 0.0 mm
20:24 8.9 °C -3.7 °C 1011.6 hPa Oeste 6.9 km/h 19 km/h 41% 0.0 mm
20:29 8.9 °C -3.7 °C 1011.6 hPa ONO 7.3 km/h 19.3 km/h 41% 0.0 mm
20:34 8.9 °C -3.7 °C 1011.6 hPa Oeste 7.6 km/h 16.7 km/h 41% 0.0 mm
20:39 8.9 °C -3.7 °C 1011.6 hPa Oeste 8.2 km/h 16.1 km/h 41% 0.0 mm
20:44 8.8 °C -3.8 °C 1011.5 hPa Oeste 8.7 km/h 20.9 km/h 41% 0.0 mm
20:49 8.8 °C -3.7 °C 1011.5 hPa Oeste 9.2 km/h 20.9 km/h 41.2% 0.0 mm
20:54 8.8 °C -3.4 °C 1011.7 hPa OSO 9.5 km/h 27.8 km/h 42% 0.0 mm
20:59 8.8 °C -3.4 °C 1011.7 hPa Oeste 11.2 km/h 27.4 km/h 42% 0.0 mm
21:04 8.8 °C -3.4 °C 1011.7 hPa Oeste 12.2 km/h 28.2 km/h 42% 0.0 mm
21:09 8.8 °C -3.4 °C 1011.8 hPa OSO 13.9 km/h 34.3 km/h 42% 0.0 mm
21:14 8.8 °C -3.4 °C 1011.8 hPa OSO 14.8 km/h 33.8 km/h 42% 0.0 mm
21:19 8.7 °C -3.5 °C 1011.8 hPa OSO 13.3 km/h 24.1 km/h 42% 0.0 mm
21:24 8.8 °C -3.4 °C 1011.8 hPa OSO 12.2 km/h 24.1 km/h 42% 0.0 mm
21:29 8.8 °C -3.4 °C 1011.7 hPa SO 11.6 km/h 25.1 km/h 42% 0.0 mm
21:34 8.8 °C -3.7 °C 1011.7 hPa Oeste 11.1 km/h 28.2 km/h 41.2% 0.0 mm
21:39 8.9 °C -3.7 °C 1012.0 hPa Oeste 11.7 km/h 27.4 km/h 41% 0.0 mm
21:44 8.9 °C -3.7 °C 1012.0 hPa OSO 12.2 km/h 19.3 km/h 41% 0.0 mm
21:49 8.9 °C -3.7 °C 1012.0 hPa SO 7.7 km/h 9.7 km/h 41% 0.0 mm
21:54 8.8 °C -3.7 °C 1012.4 hPa SO 4.7 km/h 15.6 km/h 41% 0.0 mm
21:59 8.9 °C -3.7 °C 1012.4 hPa NO 5.8 km/h 19 km/h 41% 0.0 mm
22:04 8.9 °C -3.7 °C 1012.4 hPa ONO 6.5 km/h 19.3 km/h 41% 0.0 mm
22:09 8.8 °C -3.7 °C 1012.4 hPa ONO 4.8 km/h 7.6 km/h 41% 0.0 mm
22:14 8.8 °C -3.8 °C 1012.4 hPa Oeste 3.9 km/h 10 km/h 41% 0.0 mm
22:19 8.7 °C -3.9 °C 1012.4 hPa Oeste 4.4 km/h 15.6 km/h 41% 0.0 mm
22:24 8.6 °C -3.9 °C 1012.4 hPa Oeste 5 km/h 18.5 km/h 41% 0.0 mm
22:29 8.6 °C -3.9 °C 1012.2 hPa Oeste 8.1 km/h 27.8 km/h 41% 0.0 mm
22:34 8.7 °C -3.8 °C 1012.2 hPa Oeste 10.3 km/h 29.6 km/h 41% 0.0 mm
22:39 8.7 °C -3.8 °C 1012.2 hPa Oeste 14 km/h 29 km/h 41% 0.0 mm
22:44 8.7 °C -3.8 °C 1011.8 hPa Oeste 16.1 km/h 27.4 km/h 41% 0.0 mm
22:49 8.7 °C -3.9 °C 1011.8 hPa Oeste 17.2 km/h 34.3 km/h 41% 0.0 mm
22:54 8.7 °C -3.8 °C 1011.8 hPa Oeste 18 km/h 33.8 km/h 41% 0.0 mm
22:59 8.6 °C -3.9 °C 1011.8 hPa Oeste 20.4 km/h 40.7 km/h 41% 0.0 mm
23:04 8.6 °C -3.9 °C 1011.8 hPa Oeste 21.7 km/h 40.2 km/h 41% 0.0 mm
23:09 8.5 °C -3.8 °C 1011.8 hPa Oeste 22.2 km/h 40.7 km/h 41.8% 0.0 mm
23:14 8.5 °C -3.7 °C 1011.8 hPa Oeste 22.5 km/h 40.2 km/h 42% 0.0 mm
23:19 8.4 °C -3.8 °C 1011.8 hPa Oeste 21.6 km/h 38.6 km/h 42% 0.0 mm
23:24 8.3 °C -3.8 °C 1012.2 hPa Oeste 20.9 km/h 35.4 km/h 42% 0.0 mm
23:29 8.3 °C -3.9 °C 1012.2 hPa Oeste 16.3 km/h 22.5 km/h 42% 0.0 mm
23:34 8.3 °C -3.9 °C 1012.2 hPa Oeste 13 km/h 28.6 km/h 42% 0.0 mm
23:39 8.3 °C -3.9 °C 1012.3 hPa Oeste 13.4 km/h 33.3 km/h 42% 0.0 mm
23:44 8.3 °C -3.9 °C 1012.3 hPa OSO 13.7 km/h 33.8 km/h 42% 0.0 mm
23:49 8.3 °C -3.9 °C 1012.3 hPa Oeste 13.3 km/h 38.9 km/h 42% 0.0 mm
23:54 8.3 °C -3.8 °C 1012.7 hPa OSO 13 km/h 38.6 km/h 42% 0.0 mm
23:59 8.4 °C -3.8 °C 1012.7 hPa SO 14.1 km/h 37 km/h 42% 0.0 mm
Murcia-Puente Tocinos, Espa?a
Compliments of Weather Underground - 3.25 mb

La estación de MeteoMurcia.com, publica sus datos en los siguientes proyectos:

Weather Underground PWS IMURCIAP2 Meteoclimatic www.awekas.at

W3Counter
Web Analytics